sensor_id;sensor_type;location;lat;lon;timestamp;P1;durP1;ratioP1;P2;durP2;ratioP2
65597;SDS011;52267;51.984;20.956;2023-11-22T00:01:19;18.60;;;8.10;;
65597;SDS011;52267;51.984;20.956;2023-11-22T00:03:49;19.40;;;7.90;;
65597;SDS011;52267;51.984;20.956;2023-11-22T00:06:16;14.90;;;7.60;;
65597;SDS011;52267;51.984;20.956;2023-11-22T00:08:47;17.90;;;8.00;;
65597;SDS011;52267;51.984;20.956;2023-11-22T00:11:14;12.70;;;6.80;;
65597;SDS011;52267;51.984;20.956;2023-11-22T00:13:41;16.80;;;7.60;;
65597;SDS011;52267;51.984;20.956;2023-11-22T00:16:08;16.50;;;8.40;;
65597;SDS011;52267;51.984;20.956;2023-11-22T00:18:36;15.70;;;7.40;;
65597;SDS011;52267;51.984;20.956;2023-11-22T00:21:07;16.90;;;7.60;;
65597;SDS011;52267;51.984;20.956;2023-11-22T00:23:34;15.10;;;7.00;;
65597;SDS011;52267;51.984;20.956;2023-11-22T00:26:01;12.90;;;7.00;;
65597;SDS011;52267;51.984;20.956;2023-11-22T00:28:29;13.90;;;7.10;;
65597;SDS011;52267;51.984;20.956;2023-11-22T00:30:56;16.30;;;7.90;;
65597;SDS011;52267;51.984;20.956;2023-11-22T00:33:23;14.60;;;7.30;;
65597;SDS011;52267;51.984;20.956;2023-11-22T00:35:51;16.20;;;7.40;;
65597;SDS011;52267;51.984;20.956;2023-11-22T00:38:20;12.20;;;6.50;;
65597;SDS011;52267;51.984;20.956;2023-11-22T00:40:47;15.80;;;8.00;;
65597;SDS011;52267;51.984;20.956;2023-11-22T00:43:14;15.60;;;7.60;;
65597;SDS011;52267;51.984;20.956;2023-11-22T00:45:41;14.00;;;7.20;;
65597;SDS011;52267;51.984;20.956;2023-11-22T00:48:08;13.80;;;7.50;;
65597;SDS011;52267;51.984;20.956;2023-11-22T00:50:36;16.10;;;7.40;;
65597;SDS011;52267;51.984;20.956;2023-11-22T00:53:03;15.90;;;7.60;;
65597;SDS011;52267;51.984;20.956;2023-11-22T00:55:30;12.00;;;6.30;;
65597;SDS011;52267;51.984;20.956;2023-11-22T00:57:58;12.50;;;7.10;;
65597;SDS011;52267;51.984;20.956;2023-11-22T01:00:31;18.20;;;7.60;;
65597;SDS011;52267;51.984;20.956;2023-11-22T01:02:58;14.90;;;7.80;;
65597;SDS011;52267;51.984;20.956;2023-11-22T01:05:25;14.50;;;6.90;;
65597;SDS011;52267;51.984;20.956;2023-11-22T01:07:52;13.60;;;7.10;;
65597;SDS011;52267;51.984;20.956;2023-11-22T01:10:19;14.00;;;7.70;;
65597;SDS011;52267;51.984;20.956;2023-11-22T01:12:46;13.40;;;6.50;;
65597;SDS011;52267;51.984;20.956;2023-11-22T01:15:14;14.60;;;7.50;;
65597;SDS011;52267;51.984;20.956;2023-11-22T01:17:41;15.40;;;8.10;;
65597;SDS011;52267;51.984;20.956;2023-11-22T01:20:09;14.50;;;7.00;;
65597;SDS011;52267;51.984;20.956;2023-11-22T01:22:38;16.00;;;7.40;;
65597;SDS011;52267;51.984;20.956;2023-11-22T01:25:05;12.80;;;6.40;;
65597;SDS011;52267;51.984;20.956;2023-11-22T01:27:33;13.70;;;6.90;;
65597;SDS011;52267;51.984;20.956;2023-11-22T01:30:00;17.00;;;7.10;;
65597;SDS011;52267;51.984;20.956;2023-11-22T01:32:30;13.90;;;7.50;;
65597;SDS011;52267;51.984;20.956;2023-11-22T01:34:57;13.30;;;7.10;;
65597;SDS011;52267;51.984;20.956;2023-11-22T01:37:25;12.50;;;6.90;;
65597;SDS011;52267;51.984;20.956;2023-11-22T01:39:53;13.60;;;6.40;;
65597;SDS011;52267;51.984;20.956;2023-11-22T01:42:20;12.70;;;6.10;;
65597;SDS011;52267;51.984;20.956;2023-11-22T01:44:48;11.60;;;6.70;;
65597;SDS011;52267;51.984;20.956;2023-11-22T01:47:15;12.70;;;6.50;;
65597;SDS011;52267;51.984;20.956;2023-11-22T01:49:43;12.70;;;6.60;;
65597;SDS011;52267;51.984;20.956;2023-11-22T01:52:10;12.30;;;5.40;;
65597;SDS011;52267;51.984;20.956;2023-11-22T01:54:37;11.70;;;6.90;;
65597;SDS011;52267;51.984;20.956;2023-11-22T01:57:06;12.00;;;6.60;;
65597;SDS011;52267;51.984;20.956;2023-11-22T01:59:35;12.30;;;6.20;;
65597;SDS011;52267;51.984;20.956;2023-11-22T02:02:02;10.60;;;5.40;;
65597;SDS011;52267;51.984;20.956;2023-11-22T02:04:30;11.70;;;6.10;;
65597;SDS011;52267;51.984;20.956;2023-11-22T02:06:57;10.40;;;5.70;;
65597;SDS011;52267;51.984;20.956;2023-11-22T02:09:24;11.20;;;6.10;;
65597;SDS011;52267;51.984;20.956;2023-11-22T02:11:51;11.90;;;5.60;;
65597;SDS011;52267;51.984;20.956;2023-11-22T02:14:19;12.30;;;6.30;;
65597;SDS011;52267;51.984;20.956;2023-11-22T02:16:46;12.20;;;6.20;;
65597;SDS011;52267;51.984;20.956;2023-11-22T02:19:17;13.40;;;6.10;;
65597;SDS011;52267;51.984;20.956;2023-11-22T02:21:44;10.20;;;5.20;;
65597;SDS011;52267;51.984;20.956;2023-11-22T02:24:12;10.40;;;5.20;;
65597;SDS011;52267;51.984;20.956;2023-11-22T02:26:44;9.80;;;5.80;;
65597;SDS011;52267;51.984;20.956;2023-11-22T02:29:12;12.00;;;6.00;;
65597;SDS011;52267;51.984;20.956;2023-11-22T02:31:41;11.60;;;5.90;;
65597;SDS011;52267;51.984;20.956;2023-11-22T02:34:14;9.90;;;5.40;;
65597;SDS011;52267;51.984;20.956;2023-11-22T02:36:42;9.10;;;5.50;;
65597;SDS011;52267;51.984;20.956;2023-11-22T02:39:10;11.30;;;5.10;;
65597;SDS011;52267;51.984;20.956;2023-11-22T02:41:37;13.10;;;6.10;;
65597;SDS011;52267;51.984;20.956;2023-11-22T02:44:05;11.30;;;5.10;;
65597;SDS011;52267;51.984;20.956;2023-11-22T02:46:35;12.40;;;5.40;;
65597;SDS011;52267;51.984;20.956;2023-11-22T02:49:02;12.50;;;5.70;;
65597;SDS011;52267;51.984;20.956;2023-11-22T02:51:30;10.40;;;4.90;;
65597;SDS011;52267;51.984;20.956;2023-11-22T02:53:58;8.60;;;4.80;;
65597;SDS011;52267;51.984;20.956;2023-11-22T02:56:25;10.10;;;4.90;;
65597;SDS011;52267;51.984;20.956;2023-11-22T02:58:52;8.90;;;4.90;;
65597;SDS011;52267;51.984;20.956;2023-11-22T03:01:19;10.80;;;5.20;;
65597;SDS011;52267;51.984;20.956;2023-11-22T03:03:46;11.90;;;5.80;;
65597;SDS011;52267;51.984;20.956;2023-11-22T03:06:14;10.30;;;4.80;;
65597;SDS011;52267;51.984;20.956;2023-11-22T03:08:41;9.30;;;4.60;;
65597;SDS011;52267;51.984;20.956;2023-11-22T03:11:09;10.40;;;5.00;;
65597;SDS011;52267;51.984;20.956;2023-11-22T03:13:36;11.10;;;5.00;;
65597;SDS011;52267;51.984;20.956;2023-11-22T03:16:05;9.30;;;4.90;;
65597;SDS011;52267;51.984;20.956;2023-11-22T03:18:32;10.20;;;4.50;;
65597;SDS011;52267;51.984;20.956;2023-11-22T03:20:59;10.10;;;4.90;;
65597;SDS011;52267;51.984;20.956;2023-11-22T03:23:28;8.10;;;4.50;;
65597;SDS011;52267;51.984;20.956;2023-11-22T03:25:55;11.80;;;5.10;;
65597;SDS011;52267;51.984;20.956;2023-11-22T03:28:22;10.80;;;4.30;;
65597;SDS011;52267;51.984;20.956;2023-11-22T03:30:49;8.20;;;4.90;;
65597;SDS011;52267;51.984;20.956;2023-11-22T03:33:16;8.30;;;4.10;;
65597;SDS011;52267;51.984;20.956;2023-11-22T03:35:44;8.50;;;4.50;;
65597;SDS011;52267;51.984;20.956;2023-11-22T03:38:11;8.00;;;3.90;;
65597;SDS011;52267;51.984;20.956;2023-11-22T03:40:38;9.80;;;4.30;;
65597;SDS011;52267;51.984;20.956;2023-11-22T03:43:05;9.70;;;4.70;;
65597;SDS011;52267;51.984;20.956;2023-11-22T03:45:34;11.00;;;5.20;;
65597;SDS011;52267;51.984;20.956;2023-11-22T03:48:02;9.80;;;4.50;;
65597;SDS011;52267;51.984;20.956;2023-11-22T03:50:29;8.60;;;4.70;;
65597;SDS011;52267;51.984;20.956;2023-11-22T03:52:56;10.50;;;4.60;;
65597;SDS011;52267;51.984;20.956;2023-11-22T03:55:23;9.90;;;4.00;;
65597;SDS011;52267;51.984;20.956;2023-11-22T03:57:51;9.30;;;4.60;;
65597;SDS011;52267;51.984;20.956;2023-11-22T04:00:18;7.80;;;3.90;;
65597;SDS011;52267;51.984;20.956;2023-11-22T04:02:46;7.70;;;3.70;;
65597;SDS011;52267;51.984;20.956;2023-11-22T04:05:13;9.50;;;4.50;;
65597;SDS011;52267;51.984;20.956;2023-11-22T04:07:41;8.20;;;3.90;;
65597;SDS011;52267;51.984;20.956;2023-11-22T04:10:08;7.20;;;3.70;;
65597;SDS011;52267;51.984;20.956;2023-11-22T04:12:36;10.80;;;4.80;;
65597;SDS011;52267;51.984;20.956;2023-11-22T04:15:04;11.70;;;4.70;;
65597;SDS011;52267;51.984;20.956;2023-11-22T04:17:35;9.20;;;3.70;;
65597;SDS011;52267;51.984;20.956;2023-11-22T04:20:06;8.10;;;4.10;;
65597;SDS011;52267;51.984;20.956;2023-11-22T04:22:37;8.20;;;4.20;;
65597;SDS011;52267;51.984;20.956;2023-11-22T04:25:04;11.00;;;4.40;;
65597;SDS011;52267;51.984;20.956;2023-11-22T04:27:33;8.80;;;4.20;;
65597;SDS011;52267;51.984;20.956;2023-11-22T04:30:00;9.90;;;4.20;;
65597;SDS011;52267;51.984;20.956;2023-11-22T04:32:27;8.30;;;4.00;;
65597;SDS011;52267;51.984;20.956;2023-11-22T04:34:55;9.40;;;4.50;;
65597;SDS011;52267;51.984;20.956;2023-11-22T04:37:22;8.80;;;4.20;;
65597;SDS011;52267;51.984;20.956;2023-11-22T04:39:53;7.50;;;3.70;;
65597;SDS011;52267;51.984;20.956;2023-11-22T04:42:20;7.60;;;4.60;;
65597;SDS011;52267;51.984;20.956;2023-11-22T04:44:48;8.30;;;4.20;;
65597;SDS011;52267;51.984;20.956;2023-11-22T04:47:15;8.00;;;4.10;;
65597;SDS011;52267;51.984;20.956;2023-11-22T04:49:42;9.10;;;5.30;;
65597;SDS011;52267;51.984;20.956;2023-11-22T04:52:09;8.60;;;4.50;;
65597;SDS011;52267;51.984;20.956;2023-11-22T04:54:37;11.40;;;4.90;;
65597;SDS011;52267;51.984;20.956;2023-11-22T04:57:04;8.50;;;4.40;;
65597;SDS011;52267;51.984;20.956;2023-11-22T04:59:32;7.30;;;4.10;;
65597;SDS011;52267;51.984;20.956;2023-11-22T05:01:59;8.90;;;4.50;;
65597;SDS011;52267;51.984;20.956;2023-11-22T05:04:26;10.50;;;4.80;;
65597;SDS011;52267;51.984;20.956;2023-11-22T05:06:53;8.90;;;4.00;;
65597;SDS011;52267;51.984;20.956;2023-11-22T05:09:20;11.30;;;4.70;;
65597;SDS011;52267;51.984;20.956;2023-11-22T05:11:48;6.10;;;4.00;;
65597;SDS011;52267;51.984;20.956;2023-11-22T05:14:15;7.60;;;4.30;;
65597;SDS011;52267;51.984;20.956;2023-11-22T05:16:42;8.50;;;4.20;;
65597;SDS011;52267;51.984;20.956;2023-11-22T05:19:09;11.90;;;4.90;;
65597;SDS011;52267;51.984;20.956;2023-11-22T05:21:36;10.30;;;4.70;;
65597;SDS011;52267;51.984;20.956;2023-11-22T05:24:04;9.70;;;4.30;;
65597;SDS011;52267;51.984;20.956;2023-11-22T05:26:31;9.40;;;5.50;;
65597;SDS011;52267;51.984;20.956;2023-11-22T05:28:58;8.10;;;4.50;;
65597;SDS011;52267;51.984;20.956;2023-11-22T05:31:25;10.10;;;4.70;;
65597;SDS011;52267;51.984;20.956;2023-11-22T05:33:53;12.20;;;4.70;;
65597;SDS011;52267;51.984;20.956;2023-11-22T05:36:21;9.60;;;4.50;;
65597;SDS011;52267;51.984;20.956;2023-11-22T05:38:48;7.30;;;4.70;;
65597;SDS011;52267;51.984;20.956;2023-11-22T05:41:16;10.10;;;4.70;;
65597;SDS011;52267;51.984;20.956;2023-11-22T05:43:43;8.40;;;4.50;;
65597;SDS011;52267;51.984;20.956;2023-11-22T05:46:10;8.90;;;4.80;;
65597;SDS011;52267;51.984;20.956;2023-11-22T05:48:39;9.00;;;4.80;;
65597;SDS011;52267;51.984;20.956;2023-11-22T05:51:06;8.30;;;4.80;;
65597;SDS011;52267;51.984;20.956;2023-11-22T05:53:35;8.80;;;4.30;;
65597;SDS011;52267;51.984;20.956;2023-11-22T05:56:05;9.30;;;5.00;;
65597;SDS011;52267;51.984;20.956;2023-11-22T05:58:38;10.70;;;4.80;;
65597;SDS011;52267;51.984;20.956;2023-11-22T06:01:05;8.90;;;4.70;;
65597;SDS011;52267;51.984;20.956;2023-11-22T06:03:34;12.50;;;5.00;;
65597;SDS011;52267;51.984;20.956;2023-11-22T06:06:02;8.50;;;4.50;;
65597;SDS011;52267;51.984;20.956;2023-11-22T06:08:29;9.60;;;4.70;;
65597;SDS011;52267;51.984;20.956;2023-11-22T06:10:57;9.40;;;4.70;;
65597;SDS011;52267;51.984;20.956;2023-11-22T06:13:26;9.40;;;4.90;;
65597;SDS011;52267;51.984;20.956;2023-11-22T06:15:54;9.30;;;4.20;;
65597;SDS011;52267;51.984;20.956;2023-11-22T06:18:21;10.00;;;4.50;;
65597;SDS011;52267;51.984;20.956;2023-11-22T06:20:48;11.10;;;4.90;;
65597;SDS011;52267;51.984;20.956;2023-11-22T06:23:15;9.10;;;4.50;;
65597;SDS011;52267;51.984;20.956;2023-11-22T06:25:42;11.20;;;5.20;;
65597;SDS011;52267;51.984;20.956;2023-11-22T06:28:10;7.30;;;4.40;;
65597;SDS011;52267;51.984;20.956;2023-11-22T06:30:37;7.90;;;4.20;;
65597;SDS011;52267;51.984;20.956;2023-11-22T06:33:04;9.00;;;4.60;;
65597;SDS011;52267;51.984;20.956;2023-11-22T06:35:32;11.90;;;4.70;;
65597;SDS011;52267;51.984;20.956;2023-11-22T06:37:59;10.50;;;4.70;;
65597;SDS011;52267;51.984;20.956;2023-11-22T06:40:27;7.80;;;4.40;;
65597;SDS011;52267;51.984;20.956;2023-11-22T06:42:56;10.80;;;4.80;;
65597;SDS011;52267;51.984;20.956;2023-11-22T06:45:23;9.00;;;4.60;;
65597;SDS011;52267;51.984;20.956;2023-11-22T06:47:50;9.50;;;4.90;;
65597;SDS011;52267;51.984;20.956;2023-11-22T06:50:17;10.00;;;5.30;;
65597;SDS011;52267;51.984;20.956;2023-11-22T06:52:45;9.70;;;4.90;;
65597;SDS011;52267;51.984;20.956;2023-11-22T06:55:15;8.40;;;4.60;;
65597;SDS011;52267;51.984;20.956;2023-11-22T06:57:42;8.60;;;4.70;;
65597;SDS011;52267;51.984;20.956;2023-11-22T07:00:10;8.90;;;4.80;;
65597;SDS011;52267;51.984;20.956;2023-11-22T07:02:39;8.60;;;4.60;;
65597;SDS011;52267;51.984;20.956;2023-11-22T07:05:06;7.10;;;4.40;;
65597;SDS011;52267;51.984;20.956;2023-11-22T07:07:35;9.40;;;4.50;;
65597;SDS011;52267;51.984;20.956;2023-11-22T07:10:03;9.70;;;4.30;;
65597;SDS011;52267;51.984;20.956;2023-11-22T07:12:33;7.80;;;4.10;;
65597;SDS011;52267;51.984;20.956;2023-11-22T07:15:03;10.40;;;4.40;;
65597;SDS011;52267;51.984;20.956;2023-11-22T07:17:41;6.50;;;3.30;;
65597;SDS011;52267;51.984;20.956;2023-11-22T07:20:08;7.50;;;4.70;;
65597;SDS011;52267;51.984;20.956;2023-11-22T07:22:42;10.20;;;4.80;;
65597;SDS011;52267;51.984;20.956;2023-11-22T07:25:10;11.60;;;4.70;;
65597;SDS011;52267;51.984;20.956;2023-11-22T07:27:45;9.70;;;4.60;;
65597;SDS011;52267;51.984;20.956;2023-11-22T07:30:13;10.20;;;4.40;;
65597;SDS011;52267;51.984;20.956;2023-11-22T07:32:41;8.10;;;4.70;;
65597;SDS011;52267;51.984;20.956;2023-11-22T07:35:09;10.70;;;5.20;;
65597;SDS011;52267;51.984;20.956;2023-11-22T07:37:36;12.30;;;5.20;;
65597;SDS011;52267;51.984;20.956;2023-11-22T07:40:06;10.90;;;4.80;;
65597;SDS011;52267;51.984;20.956;2023-11-22T07:42:36;11.30;;;4.70;;
65597;SDS011;52267;51.984;20.956;2023-11-22T07:45:03;9.30;;;4.90;;
65597;SDS011;52267;51.984;20.956;2023-11-22T07:47:31;8.80;;;4.70;;
65597;SDS011;52267;51.984;20.956;2023-11-22T07:50:04;9.40;;;4.00;;
65597;SDS011;52267;51.984;20.956;2023-11-22T07:52:34;9.00;;;4.30;;
65597;SDS011;52267;51.984;20.956;2023-11-22T07:55:01;10.70;;;5.70;;
65597;SDS011;52267;51.984;20.956;2023-11-22T07:57:28;9.90;;;5.60;;
65597;SDS011;52267;51.984;20.956;2023-11-22T07:59:55;9.40;;;5.10;;
65597;SDS011;52267;51.984;20.956;2023-11-22T08:02:24;8.50;;;5.40;;
65597;SDS011;52267;51.984;20.956;2023-11-22T08:04:52;10.00;;;4.00;;
65597;SDS011;52267;51.984;20.956;2023-11-22T08:07:20;7.30;;;4.60;;
65597;SDS011;52267;51.984;20.956;2023-11-22T08:09:48;15.00;;;5.90;;
65597;SDS011;52267;51.984;20.956;2023-11-22T08:12:15;10.60;;;4.80;;
65597;SDS011;52267;51.984;20.956;2023-11-22T08:14:43;11.30;;;5.20;;
65597;SDS011;52267;51.984;20.956;2023-11-22T08:17:10;12.90;;;6.60;;
65597;SDS011;52267;51.984;20.956;2023-11-22T08:19:38;9.60;;;5.20;;
65597;SDS011;52267;51.984;20.956;2023-11-22T08:22:06;9.30;;;5.00;;
65597;SDS011;52267;51.984;20.956;2023-11-22T08:24:34;9.40;;;5.30;;
65597;SDS011;52267;51.984;20.956;2023-11-22T08:27:01;9.60;;;5.10;;
65597;SDS011;52267;51.984;20.956;2023-11-22T08:29:30;9.70;;;4.40;;
65597;SDS011;52267;51.984;20.956;2023-11-22T08:31:57;9.60;;;5.10;;
65597;SDS011;52267;51.984;20.956;2023-11-22T08:34:25;11.00;;;4.90;;
65597;SDS011;52267;51.984;20.956;2023-11-22T08:36:52;9.20;;;5.00;;
65597;SDS011;52267;51.984;20.956;2023-11-22T08:39:19;10.00;;;4.50;;
65597;SDS011;52267;51.984;20.956;2023-11-22T08:41:46;7.70;;;4.20;;
65597;SDS011;52267;51.984;20.956;2023-11-22T08:44:16;10.00;;;5.40;;
65597;SDS011;52267;51.984;20.956;2023-11-22T08:46:43;7.50;;;5.00;;
65597;SDS011;52267;51.984;20.956;2023-11-22T08:49:12;9.40;;;5.30;;
65597;SDS011;52267;51.984;20.956;2023-11-22T08:51:42;11.60;;;5.30;;
65597;SDS011;52267;51.984;20.956;2023-11-22T08:54:09;9.30;;;4.60;;
65597;SDS011;52267;51.984;20.956;2023-11-22T08:56:37;9.50;;;5.20;;
65597;SDS011;52267;51.984;20.956;2023-11-22T08:59:04;7.10;;;4.40;;
65597;SDS011;52267;51.984;20.956;2023-11-22T09:01:32;8.20;;;4.60;;
65597;SDS011;52267;51.984;20.956;2023-11-22T09:04:00;7.80;;;4.60;;
65597;SDS011;52267;51.984;20.956;2023-11-22T09:06:27;10.40;;;4.40;;
65597;SDS011;52267;51.984;20.956;2023-11-22T09:08:56;7.50;;;4.30;;
65597;SDS011;52267;51.984;20.956;2023-11-22T09:11:23;10.20;;;5.30;;
65597;SDS011;52267;51.984;20.956;2023-11-22T09:13:51;10.10;;;4.70;;
65597;SDS011;52267;51.984;20.956;2023-11-22T09:16:20;7.80;;;4.20;;
65597;SDS011;52267;51.984;20.956;2023-11-22T09:18:50;9.50;;;4.60;;
65597;SDS011;52267;51.984;20.956;2023-11-22T09:21:18;9.70;;;5.00;;
65597;SDS011;52267;51.984;20.956;2023-11-22T09:23:45;9.80;;;4.80;;
65597;SDS011;52267;51.984;20.956;2023-11-22T09:26:15;8.70;;;4.90;;
65597;SDS011;52267;51.984;20.956;2023-11-22T09:28:42;6.50;;;4.60;;
65597;SDS011;52267;51.984;20.956;2023-11-22T09:31:09;8.00;;;4.50;;
65597;SDS011;52267;51.984;20.956;2023-11-22T09:33:40;8.90;;;4.20;;
65597;SDS011;52267;51.984;20.956;2023-11-22T09:36:07;9.00;;;5.60;;
65597;SDS011;52267;51.984;20.956;2023-11-22T09:38:35;9.50;;;4.80;;
65597;SDS011;52267;51.984;20.956;2023-11-22T09:41:04;8.10;;;5.00;;
65597;SDS011;52267;51.984;20.956;2023-11-22T09:43:31;10.80;;;5.30;;
65597;SDS011;52267;51.984;20.956;2023-11-22T09:45:58;8.50;;;4.70;;
65597;SDS011;52267;51.984;20.956;2023-11-22T09:48:27;8.90;;;4.20;;
65597;SDS011;52267;51.984;20.956;2023-11-22T09:50:57;8.00;;;4.60;;
65597;SDS011;52267;51.984;20.956;2023-11-22T09:56:14;7.70;;;4.40;;
65597;SDS011;52267;51.984;20.956;2023-11-22T09:58:42;10.70;;;5.00;;
65597;SDS011;52267;51.984;20.956;2023-11-22T10:01:12;9.70;;;4.60;;
65597;SDS011;52267;51.984;20.956;2023-11-22T10:03:40;8.00;;;4.70;;
65597;SDS011;52267;51.984;20.956;2023-11-22T10:06:08;8.10;;;4.70;;
65597;SDS011;52267;51.984;20.956;2023-11-22T10:08:35;10.40;;;5.40;;
65597;SDS011;52267;51.984;20.956;2023-11-22T10:11:04;8.60;;;4.50;;
65597;SDS011;52267;51.984;20.956;2023-11-22T10:13:31;6.80;;;4.40;;
65597;SDS011;52267;51.984;20.956;2023-11-22T10:16:09;6.40;;;4.00;;
65597;SDS011;52267;51.984;20.956;2023-11-22T10:18:48;8.30;;;4.30;;
65597;SDS011;52267;51.984;20.956;2023-11-22T10:21:26;8.90;;;5.00;;
65597;SDS011;52267;51.984;20.956;2023-11-22T10:24:04;7.70;;;4.20;;
65597;SDS011;52267;51.984;20.956;2023-11-22T10:26:36;7.90;;;4.20;;
65597;SDS011;52267;51.984;20.956;2023-11-22T10:29:03;6.90;;;3.60;;
65597;SDS011;52267;51.984;20.956;2023-11-22T10:31:30;6.20;;;3.90;;
65597;SDS011;52267;51.984;20.956;2023-11-22T10:33:57;6.00;;;3.30;;
65597;SDS011;52267;51.984;20.956;2023-11-22T10:36:25;9.20;;;4.80;;
65597;SDS011;52267;51.984;20.956;2023-11-22T10:38:54;7.30;;;4.10;;
65597;SDS011;52267;51.984;20.956;2023-11-22T10:41:21;8.40;;;4.70;;
65597;SDS011;52267;51.984;20.956;2023-11-22T10:43:52;7.70;;;4.30;;
65597;SDS011;52267;51.984;20.956;2023-11-22T10:46:27;8.80;;;4.10;;
65597;SDS011;52267;51.984;20.956;2023-11-22T10:48:55;6.60;;;3.70;;
65597;SDS011;52267;51.984;20.956;2023-11-22T10:51:30;8.20;;;4.30;;
65597;SDS011;52267;51.984;20.956;2023-11-22T10:54:00;8.10;;;4.30;;
65597;SDS011;52267;51.984;20.956;2023-11-22T10:56:39;6.90;;;3.30;;
65597;SDS011;52267;51.984;20.956;2023-11-22T10:59:10;8.60;;;5.20;;
65597;SDS011;52267;51.984;20.956;2023-11-22T11:01:47;7.80;;;4.40;;
65597;SDS011;52267;51.984;20.956;2023-11-22T11:04:24;6.00;;;3.90;;
65597;SDS011;52267;51.984;20.956;2023-11-22T11:06:55;8.70;;;4.30;;
65597;SDS011;52267;51.984;20.956;2023-11-22T11:09:23;4.50;;;2.60;;
65597;SDS011;52267;51.984;20.956;2023-11-22T11:11:57;8.30;;;3.50;;
65597;SDS011;52267;51.984;20.956;2023-11-22T11:14:37;7.40;;;4.00;;
65597;SDS011;52267;51.984;20.956;2023-11-22T11:17:06;7.30;;;4.40;;
65597;SDS011;52267;51.984;20.956;2023-11-22T11:19:34;7.90;;;4.40;;
65597;SDS011;52267;51.984;20.956;2023-11-22T11:22:02;8.40;;;4.40;;
65597;SDS011;52267;51.984;20.956;2023-11-22T11:24:38;6.80;;;4.00;;
65597;SDS011;52267;51.984;20.956;2023-11-22T11:27:07;9.20;;;4.40;;
65597;SDS011;52267;51.984;20.956;2023-11-22T11:29:37;9.30;;;5.10;;
65597;SDS011;52267;51.984;20.956;2023-11-22T11:32:15;7.70;;;5.10;;
65597;SDS011;52267;51.984;20.956;2023-11-22T11:34:49;8.90;;;4.90;;
65597;SDS011;52267;51.984;20.956;2023-11-22T11:37:20;10.60;;;4.70;;
65597;SDS011;52267;51.984;20.956;2023-11-22T11:39:47;9.70;;;5.20;;
65597;SDS011;52267;51.984;20.956;2023-11-22T11:42:15;11.40;;;5.70;;
65597;SDS011;52267;51.984;20.956;2023-11-22T11:45:11;10.50;;;4.50;;
65597;SDS011;52267;51.984;20.956;2023-11-22T11:47:38;6.10;;;3.70;;
65597;SDS011;52267;51.984;20.956;2023-11-22T11:50:05;9.20;;;5.10;;
65597;SDS011;52267;51.984;20.956;2023-11-22T11:52:33;9.00;;;5.00;;
65597;SDS011;52267;51.984;20.956;2023-11-22T11:55:02;8.90;;;4.80;;
65597;SDS011;52267;51.984;20.956;2023-11-22T11:57:32;8.60;;;5.30;;
65597;SDS011;52267;51.984;20.956;2023-11-22T11:59:59;9.20;;;4.80;;
65597;SDS011;52267;51.984;20.956;2023-11-22T12:02:27;7.60;;;4.20;;
65597;SDS011;52267;51.984;20.956;2023-11-22T12:04:54;8.10;;;4.90;;
65597;SDS011;52267;51.984;20.956;2023-11-22T12:07:21;11.10;;;5.50;;
65597;SDS011;52267;51.984;20.956;2023-11-22T12:09:48;9.80;;;4.60;;
65597;SDS011;52267;51.984;20.956;2023-11-22T12:12:15;9.60;;;5.10;;
65597;SDS011;52267;51.984;20.956;2023-11-22T12:14:44;7.50;;;4.50;;
65597;SDS011;52267;51.984;20.956;2023-11-22T12:17:11;8.10;;;4.40;;
65597;SDS011;52267;51.984;20.956;2023-11-22T12:19:38;7.70;;;4.00;;
65597;SDS011;52267;51.984;20.956;2023-11-22T12:22:05;12.80;;;4.80;;
65597;SDS011;52267;51.984;20.956;2023-11-22T12:24:34;10.30;;;4.20;;
65597;SDS011;52267;51.984;20.956;2023-11-22T12:27:02;9.20;;;4.80;;
65597;SDS011;52267;51.984;20.956;2023-11-22T12:29:29;9.30;;;5.40;;
65597;SDS011;52267;51.984;20.956;2023-11-22T12:31:56;8.80;;;5.60;;
65597;SDS011;52267;51.984;20.956;2023-11-22T12:34:23;11.10;;;6.10;;
65597;SDS011;52267;51.984;20.956;2023-11-22T12:36:53;12.20;;;6.40;;
65597;SDS011;52267;51.984;20.956;2023-11-22T12:39:20;13.30;;;6.90;;
65597;SDS011;52267;51.984;20.956;2023-11-22T12:41:49;12.40;;;5.30;;
65597;SDS011;52267;51.984;20.956;2023-11-22T12:44:20;13.00;;;6.00;;
65597;SDS011;52267;51.984;20.956;2023-11-22T12:46:51;13.40;;;6.60;;
65597;SDS011;52267;51.984;20.956;2023-11-22T12:49:26;9.40;;;5.20;;
65597;SDS011;52267;51.984;20.956;2023-11-22T12:51:55;10.20;;;5.60;;
65597;SDS011;52267;51.984;20.956;2023-11-22T12:54:26;7.40;;;4.20;;
65597;SDS011;52267;51.984;20.956;2023-11-22T12:56:53;9.90;;;4.80;;
65597;SDS011;52267;51.984;20.956;2023-11-22T12:59:26;8.20;;;4.60;;
65597;SDS011;52267;51.984;20.956;2023-11-22T13:01:59;7.80;;;5.10;;
65597;SDS011;52267;51.984;20.956;2023-11-22T13:04:27;9.80;;;4.70;;
65597;SDS011;52267;51.984;20.956;2023-11-22T13:06:55;11.30;;;4.50;;
65597;SDS011;52267;51.984;20.956;2023-11-22T13:09:22;9.90;;;4.60;;
65597;SDS011;52267;51.984;20.956;2023-11-22T13:11:49;8.30;;;4.70;;
65597;SDS011;52267;51.984;20.956;2023-11-22T13:14:18;9.00;;;4.40;;
65597;SDS011;52267;51.984;20.956;2023-11-22T13:16:45;8.70;;;5.10;;
65597;SDS011;52267;51.984;20.956;2023-11-22T13:19:12;10.10;;;5.30;;
65597;SDS011;52267;51.984;20.956;2023-11-22T13:21:39;11.00;;;6.40;;
65597;SDS011;52267;51.984;20.956;2023-11-22T13:24:07;10.00;;;5.00;;
65597;SDS011;52267;51.984;20.956;2023-11-22T13:26:35;8.60;;;4.50;;
65597;SDS011;52267;51.984;20.956;2023-11-22T13:29:03;8.80;;;4.70;;
65597;SDS011;52267;51.984;20.956;2023-11-22T13:31:30;9.00;;;5.00;;
65597;SDS011;52267;51.984;20.956;2023-11-22T13:33:57;12.00;;;5.60;;
65597;SDS011;52267;51.984;20.956;2023-11-22T13:36:24;10.20;;;5.00;;
65597;SDS011;52267;51.984;20.956;2023-11-22T13:38:51;8.50;;;5.00;;
65597;SDS011;52267;51.984;20.956;2023-11-22T13:41:19;10.00;;;5.00;;
65597;SDS011;52267;51.984;20.956;2023-11-22T13:43:46;8.90;;;4.90;;
65597;SDS011;52267;51.984;20.956;2023-11-22T13:46:15;9.40;;;5.40;;
65597;SDS011;52267;51.984;20.956;2023-11-22T13:48:44;16.50;;;7.40;;
65597;SDS011;52267;51.984;20.956;2023-11-22T13:51:11;13.20;;;6.40;;
65597;SDS011;52267;51.984;20.956;2023-11-22T13:53:38;12.20;;;5.90;;
65597;SDS011;52267;51.984;20.956;2023-11-22T13:56:09;12.30;;;5.60;;
65597;SDS011;52267;51.984;20.956;2023-11-22T13:58:37;9.70;;;5.40;;
65597;SDS011;52267;51.984;20.956;2023-11-22T14:01:06;10.40;;;6.10;;
65597;SDS011;52267;51.984;20.956;2023-11-22T14:03:37;12.70;;;6.20;;
65597;SDS011;52267;51.984;20.956;2023-11-22T14:06:06;10.40;;;5.30;;
65597;SDS011;52267;51.984;20.956;2023-11-22T14:08:33;13.00;;;5.70;;
65597;SDS011;52267;51.984;20.956;2023-11-22T14:11:00;9.90;;;4.90;;
65597;SDS011;52267;51.984;20.956;2023-11-22T14:13:28;13.20;;;5.80;;
65597;SDS011;52267;51.984;20.956;2023-11-22T14:15:55;11.20;;;6.30;;
65597;SDS011;52267;51.984;20.956;2023-11-22T14:18:23;15.00;;;7.30;;
65597;SDS011;52267;51.984;20.956;2023-11-22T14:20:51;16.10;;;7.10;;
65597;SDS011;52267;51.984;20.956;2023-11-22T14:23:18;14.00;;;6.70;;
65597;SDS011;52267;51.984;20.956;2023-11-22T14:25:45;13.90;;;6.60;;
65597;SDS011;52267;51.984;20.956;2023-11-22T14:28:12;11.50;;;6.10;;
65597;SDS011;52267;51.984;20.956;2023-11-22T14:30:40;12.60;;;5.90;;
65597;SDS011;52267;51.984;20.956;2023-11-22T14:33:08;11.80;;;5.60;;
65597;SDS011;52267;51.984;20.956;2023-11-22T14:35:36;12.10;;;5.90;;
65597;SDS011;52267;51.984;20.956;2023-11-22T14:38:03;13.40;;;6.10;;